Terminal Aerodrome Forecast
Issued by NWS Charleston, WV

Home | Current Version | Previous Version | Text Only | Print | Product List | Glossary On
Versions: 1 2 3 4 5 6 7 8 9 10 11 12 13 14 15 16 17 18 19 20 21 22 23 24 25 26 27 28
000
FTUS41 KRLX 282340
TAFEKN
TAF
KEKN 282340Z 2900/2924 VRB03KT P6SM SHRA OVC060
      TEMPO 2900/2902 3SM SHRA
     FM290200 VRB03KT 4SM SHRA BR BKN060
     FM290300 VRB03KT 2SM SHRA BR BKN008
     FM290700 00000KT 1/4SM FG VV001
     FM291400 00000KT 4SM HZ BKN006
     FM291500 30004KT P6SM BKN020
     FM291600 30005KT P6SM BKN050
     FM291800 30005KT P6SM VCTS BKN045CB=

USA.gov is the U.S. government's official web portal to all federal, state and local government web resources and services.